createdAt,value
2017-07-16T16:17:30.309Z,100745.30
2017-07-16T16:20:33.683Z,100737.67
2017-07-16T16:23:37.788Z,100725.03
2017-07-16T16:26:41.938Z,100733.70
2017-07-16T16:29:45.259Z,100731.78
2017-07-16T16:32:48.618Z,100730.92
2017-07-16T16:35:52.253Z,100712.06
2017-07-16T16:38:55.600Z,100717.83
2017-07-16T16:41:58.911Z,100711.16
2017-07-16T16:45:02.248Z,100712.77
2017-07-16T16:48:05.861Z,100709.84
2017-07-16T16:51:09.184Z,100711.93
2017-07-16T16:54:12.569Z,100713.98
2017-07-16T16:57:16.672Z,100712.03
2017-07-16T17:00:20.024Z,100718.17
2017-07-16T17:03:23.341Z,100714.34
2017-07-16T17:06:26.689Z,100710.98
2017-07-16T17:09:30.022Z,100714.69
2017-07-16T17:12:33.393Z,100714.38
2017-07-16T17:15:36.721Z,100710.10
2017-07-16T17:18:40.134Z,100713.76
2017-07-16T17:21:43.771Z,100709.55
2017-07-16T17:24:47.876Z,100701.57
2017-07-16T17:27:52.022Z,100706.62
2017-07-16T17:30:56.706Z,100702.62
2017-07-16T17:34:00.094Z,100702.92
2017-07-16T17:37:03.417Z,100704.18
2017-07-16T17:40:07.712Z,100705.31
2017-07-16T17:43:11.016Z,100706.31
2017-07-16T17:46:14.381Z,100707.33
2017-07-16T17:49:17.905Z,100694.60
2017-07-16T17:52:21.304Z,100693.98
2017-07-16T17:55:24.645Z,100695.42
2017-07-16T17:58:28.798Z,100693.50
2017-07-16T18:01:32.460Z,100695.86
2017-07-16T18:04:35.768Z,100691.28
2017-07-16T18:07:39.154Z,100704.18
2017-07-16T18:10:43.655Z,100703.48
2017-07-16T18:13:47.922Z,100692.72
2017-07-16T18:16:52.221Z,100705.13
2017-07-16T18:19:55.647Z,100713.42
2017-07-16T18:22:59.827Z,100706.92
2017-07-16T18:26:05.203Z,100700.39
2017-07-16T18:29:11.609Z,100699.34
2017-07-16T18:32:16.829Z,100699.87
2017-07-16T18:35:20.194Z,100710.66
2017-07-16T18:38:24.019Z,100710.01
2017-07-16T18:41:27.811Z,100705.75
2017-07-16T18:44:33.209Z,100715.11
2017-07-16T18:47:36.678Z,100707.87
2017-07-16T18:50:40.398Z,100717.37
2017-07-16T18:53:44.540Z,100721.81
2017-07-16T18:56:49.393Z,100721.55
2017-07-16T18:59:52.942Z,100720.85
2017-07-16T19:02:56.417Z,100724.13
2017-07-16T19:05:59.907Z,100716.50
2017-07-16T19:09:04.366Z,100723.20
2017-07-16T19:12:08.210Z,100725.14
2017-07-16T19:15:12.418Z,100727.94
2017-07-16T19:18:16.201Z,100730.77
2017-07-16T19:21:19.827Z,100730.38
2017-07-16T19:24:24.189Z,100737.23
2017-07-16T19:27:29.225Z,100735.31
2017-07-16T19:30:32.736Z,100736.83
2017-07-16T19:33:37.660Z,100739.48
2017-07-16T19:36:41.183Z,100738.02
2017-07-16T19:39:45.575Z,100742.06
2017-07-16T19:42:50.332Z,100733.38
2017-07-16T19:45:54.987Z,100742.45
2017-07-16T19:48:58.439Z,100752.03
2017-07-16T19:52:02.566Z,100754.73
2017-07-16T19:55:08.904Z,100756.43
2017-07-16T19:58:13.117Z,100757.86
2017-07-16T20:01:17.596Z,100750.81
2017-07-16T20:04:21.793Z,100754.20
2017-07-16T20:07:25.962Z,100751.02
2017-07-16T20:10:29.385Z,100760.21
2017-07-16T20:13:33.432Z,100754.50
2017-07-16T20:16:36.848Z,100750.70
2017-07-16T20:19:40.480Z,100751.59
2017-07-16T20:22:43.895Z,100752.63
2017-07-16T20:25:47.982Z,100755.19
2017-07-16T20:28:52.840Z,100760.23
2017-07-16T20:31:56.656Z,100755.36
2017-07-16T20:35:00.190Z,100752.05
2017-07-16T20:38:03.916Z,100744.12
2017-07-16T20:41:08.199Z,100748.01
2017-07-16T20:44:12.318Z,100744.12
2017-07-16T20:47:15.737Z,100740.47
2017-07-16T20:50:19.121Z,100740.12
2017-07-16T20:53:23.009Z,100745.74
2017-07-16T20:56:27.108Z,100742.83
2017-07-16T20:59:31.852Z,100738.77
2017-07-16T21:02:36.150Z,100737.92
2017-07-16T21:05:39.507Z,100732.87
2017-07-16T21:08:42.899Z,100736.03
2017-07-16T21:11:46.879Z,100730.67
2017-07-16T21:14:52.723Z,100737.48
2017-07-16T21:17:56.249Z,100738.29
2017-07-16T21:20:59.598Z,100734.28
2017-07-16T21:24:02.949Z,100744.11
2017-07-16T21:27:06.251Z,100736.13
2017-07-16T21:30:09.604Z,100736.73
2017-07-16T21:33:12.938Z,100738.21
2017-07-16T21:36:16.307Z,100744.00
2017-07-16T21:39:19.627Z,100735.92
2017-07-16T21:42:22.955Z,100739.00
2017-07-16T21:45:26.276Z,100740.51
2017-07-16T21:48:29.649Z,100735.11
2017-07-16T21:51:34.551Z,100737.63
2017-07-16T21:54:37.908Z,100735.59
2017-07-16T21:57:41.467Z,100741.07
2017-07-16T22:00:44.819Z,100742.77
2017-07-16T22:03:48.468Z,100733.50
2017-07-16T22:06:51.751Z,100732.58
2017-07-16T22:09:55.102Z,100735.95
2017-07-16T22:12:59.202Z,100731.06
2017-07-16T22:16:02.594Z,100733.25
2017-07-16T22:19:06.100Z,100724.72
2017-07-16T22:22:09.539Z,100728.13
2017-07-16T22:25:12.851Z,100728.87
2017-07-16T22:28:16.199Z,100724.36
2017-07-16T22:31:20.314Z,100730.95
2017-07-16T22:34:24.439Z,100729.47
2017-07-16T22:37:28.758Z,100729.13
2017-07-16T22:40:32.854Z,100723.28
2017-07-16T22:43:36.547Z,100723.95
2017-07-16T22:46:39.877Z,100730.23
2017-07-16T22:49:44.031Z,100727.14
2017-07-16T22:52:47.531Z,100720.60
2017-07-16T22:55:50.999Z,100722.70
2017-07-16T22:58:55.090Z,100726.23
2017-07-16T23:01:58.443Z,100720.44
2017-07-16T23:05:01.765Z,100719.13
2017-07-16T23:08:05.367Z,100724.53
2017-07-16T23:11:08.709Z,100724.09
2017-07-16T23:14:12.807Z,100718.82
2017-07-16T23:17:17.131Z,100715.77
2017-07-16T23:20:20.439Z,100716.29
2017-07-16T23:23:24.699Z,100717.24
2017-07-16T23:26:28.037Z,100712.59
2017-07-16T23:29:32.158Z,100702.52
2017-07-16T23:32:36.246Z,100716.34
2017-07-16T23:35:39.603Z,100710.64
2017-07-16T23:38:42.921Z,100715.31
2017-07-16T23:41:46.267Z,100706.91
2017-07-16T23:44:50.757Z,100710.62
2017-07-16T23:47:54.113Z,100715.02
2017-07-16T23:50:57.493Z,100701.87
2017-07-16T23:54:00.815Z,100703.48
2017-07-16T23:57:04.152Z,100703.80
